createdAt,value
2019-04-26T00:01:45.917Z,99679.46
2019-04-26T00:04:32.010Z,99670.88
2019-04-26T00:07:18.773Z,99664.44
2019-04-26T00:10:11.733Z,99655.35
2019-04-26T00:13:05.195Z,99661.31
2019-04-26T00:16:00.630Z,99670.38
2019-04-26T00:18:46.533Z,99677.80
2019-04-26T00:21:32.566Z,99671.36
2019-04-26T00:24:19.394Z,99670.88
2019-04-26T00:27:05.490Z,99664.59
2019-04-26T00:30:34.612Z,99663.60
2019-04-26T00:33:21.432Z,99670.03
2019-04-26T00:36:07.515Z,99670.37
2019-04-26T00:38:53.702Z,99656.64
2019-04-26T00:41:39.929Z,99655.32
2019-04-26T00:44:26.068Z,99647.88
2019-04-26T00:47:15.161Z,99649.51
2019-04-26T00:50:02.224Z,99644.38
2019-04-26T00:52:48.808Z,99651.42
2019-04-26T00:55:35.465Z,99641.02
2019-04-26T00:58:22.415Z,99643.80
2019-04-26T01:01:08.525Z,99639.17
2019-04-26T01:03:54.861Z,99634.04
2019-04-26T01:06:42.635Z,99639.00
2019-04-26T01:09:28.730Z,99639.64
2019-04-26T01:12:16.365Z,99635.98
2019-04-26T01:15:02.752Z,99635.95
2019-04-26T01:17:48.779Z,99641.05
2019-04-26T01:20:36.029Z,99651.75
2019-04-26T01:23:22.992Z,99651.70
2019-04-26T01:26:16.753Z,99644.92
2019-04-26T01:29:05.815Z,99651.53
2019-04-26T01:31:59.572Z,99642.11
2019-04-26T01:34:46.582Z,99649.07
2019-04-26T01:37:32.954Z,99662.26
2019-04-26T01:40:21.992Z,99661.08
2019-04-26T01:43:15.835Z,99666.82
2019-04-26T01:46:11.285Z,99677.38
2019-04-26T01:49:04.100Z,99674.08
2019-04-26T01:52:06.784Z,99669.45
2019-04-26T01:54:53.232Z,99669.77
2019-04-26T01:57:40.404Z,99670.27
2019-04-26T02:00:49.075Z,99665.27
2019-04-26T02:03:35.048Z,99665.39
2019-04-26T02:06:28.784Z,99675.44
2019-04-26T02:09:11.116Z,99682.84
2019-04-26T02:11:57.460Z,99678.84
2019-04-26T02:14:43.737Z,99687.07
2019-04-26T02:17:29.715Z,99679.29
2019-04-26T02:21:05.700Z,99688.63
2019-04-26T02:23:56.952Z,99690.82
2019-04-26T02:26:45.379Z,99670.70
2019-04-26T02:29:32.638Z,99668.49
2019-04-26T02:32:19.312Z,99680.97
2019-04-26T02:35:05.859Z,99688.33
2019-04-26T02:37:52.213Z,99692.30
2019-04-26T02:40:38.411Z,99696.83
2019-04-26T02:43:26.473Z,99694.19
2019-04-26T02:46:29.241Z,99700.27
2019-04-26T02:49:30.721Z,99703.09
2019-04-26T02:52:23.017Z,99700.78
2019-04-26T02:55:38.843Z,99704.73
2019-04-26T02:58:24.642Z,99713.32
2019-04-26T03:01:10.981Z,99724.66
2019-04-26T03:03:57.253Z,99731.63
2019-04-26T03:07:01.889Z,99734.92
2019-04-26T03:09:36.899Z,99740.16
2019-04-26T03:12:26.548Z,99741.09
2019-04-26T03:15:27.166Z,99750.44
2019-04-26T03:18:45.751Z,99730.38
2019-04-26T03:22:11.475Z,99720.02
2019-04-26T03:25:22.020Z,99722.59
2019-04-26T03:28:25.317Z,99729.86
2019-04-26T03:31:26.342Z,99749.67
2019-04-26T03:34:50.810Z,99743.95
2019-04-26T03:38:03.424Z,99723.68
2019-04-26T03:41:13.377Z,99713.02
2019-04-26T03:44:18.219Z,99707.00
2019-04-26T03:47:09.669Z,99699.70
2019-04-26T03:50:19.282Z,99714.31
2019-04-26T03:53:39.387Z,99719.31
2019-04-26T03:57:32.521Z,99716.52
2019-04-26T04:00:47.494Z,99710.95
2019-04-26T04:04:04.420Z,99688.05
2019-04-26T04:07:03.045Z,99668.08
2019-04-26T04:09:44.856Z,99700.03
2019-04-26T04:12:50.776Z,99720.27
2019-04-26T04:15:46.715Z,99733.63
2019-04-26T04:18:35.215Z,99750.21
2019-04-26T04:21:46.930Z,99750.54
2019-04-26T04:24:45.435Z,99766.20
2019-04-26T04:27:42.024Z,99771.66
2019-04-26T04:31:13.916Z,99771.94
2019-04-26T04:34:19.232Z,99754.19
2019-04-26T04:37:06.654Z,99737.08
2019-04-26T04:40:23.469Z,99717.63
2019-04-26T04:43:34.582Z,99733.81
2019-04-26T04:47:26.004Z,99759.20
2019-04-26T04:50:52.528Z,99766.09
2019-04-26T04:53:57.507Z,99769.77
2019-04-26T04:57:20.812Z,99773.55
2019-04-26T05:00:33.635Z,99770.23
2019-04-26T05:03:44.076Z,99773.56
2019-04-26T05:07:14.966Z,99756.74
2019-04-26T05:10:15.366Z,99769.81
2019-04-26T05:13:24.940Z,99789.23
2019-04-26T05:16:39.491Z,99771.07
2019-04-26T05:19:41.397Z,99766.94
2019-04-26T05:22:51.168Z,99757.81
2019-04-26T05:26:37.716Z,99772.63
2019-04-26T05:30:01.237Z,99773.08
2019-04-26T05:33:38.681Z,99778.33
2019-04-26T05:36:50.604Z,99793.03
2019-04-26T05:40:16.069Z,99806.94
2019-04-26T05:43:46.125Z,99801.86
2019-04-26T05:47:29.245Z,99809.09
2019-04-26T05:51:09.700Z,99824.97
2019-04-26T05:55:02.670Z,99815.24
2019-04-26T05:58:18.616Z,99830.11
2019-04-26T06:01:55.204Z,99835.03
2019-04-26T06:05:18.347Z,99829.86
2019-04-26T06:08:43.821Z,99823.16
2019-04-26T06:11:55.130Z,99809.90
2019-04-26T06:15:16.092Z,99806.05
2019-04-26T06:18:43.123Z,99809.52
2019-04-26T06:21:52.183Z,99821.53
2019-04-26T06:25:15.767Z,99827.16
2019-04-26T06:28:41.310Z,99828.30
2019-04-26T06:31:35.555Z,99826.31
2019-04-26T06:34:36.305Z,99836.41
2019-04-26T06:37:37.051Z,99844.00
2019-04-26T06:40:49.741Z,99835.84
2019-04-26T06:43:43.765Z,99848.52
2019-04-26T06:47:10.766Z,99857.14
2019-04-26T06:50:26.080Z,99852.44
2019-04-26T06:53:36.491Z,99858.06
2019-04-26T06:56:48.877Z,99874.61
2019-04-26T07:00:25.306Z,99875.09
2019-04-26T07:03:29.426Z,99873.47
2019-04-26T07:06:18.615Z,99876.80
2019-04-26T07:09:09.901Z,99878.19
2019-04-26T07:12:42.420Z,99880.92
2019-04-26T07:16:01.449Z,99878.05
2019-04-26T07:19:51.255Z,99860.33
2019-04-26T07:23:18.456Z,99861.97
2019-04-26T07:26:42.050Z,99878.13
2019-04-26T07:30:05.197Z,99885.79
2019-04-26T07:33:23.990Z,99900.27
2019-04-26T07:37:04.654Z,99915.75
2019-04-26T07:40:38.479Z,99914.03
2019-04-26T07:44:26.720Z,99907.41
2019-04-26T07:47:47.500Z,99920.81
2019-04-26T07:51:20.375Z,99917.48
2019-04-26T07:54:45.341Z,99920.77
2019-04-26T07:58:22.568Z,99908.69
2019-04-26T08:01:25.740Z,99909.20
2019-04-26T08:04:17.505Z,99905.11
2019-04-26T08:07:08.594Z,99904.27
2019-04-26T08:10:07.770Z,99902.28
2019-04-26T08:13:08.487Z,99898.62
2019-04-26T08:16:21.911Z,99891.02
2019-04-26T08:19:14.690Z,99890.95
2019-04-26T08:22:14.874Z,99918.27
2019-04-26T08:24:50.930Z,99923.41
2019-04-26T08:27:38.669Z,99923.27
2019-04-26T08:30:26.131Z,99953.81
2019-04-26T08:33:14.675Z,99971.51
2019-04-26T08:36:03.081Z,99967.00
2019-04-26T08:38:52.519Z,99977.56
2019-04-26T08:41:40.765Z,99989.67
2019-04-26T08:44:41.539Z,99991.19
2019-04-26T08:47:45.956Z,99988.36
2019-04-26T08:50:45.911Z,99987.34
2019-04-26T08:53:32.095Z,99986.00
2019-04-26T08:56:22.460Z,99993.50
2019-04-26T08:59:15.006Z,99998.95
2019-04-26T09:02:21.258Z,100001.28
2019-04-26T09:05:31.240Z,99997.56
2019-04-26T09:08:19.120Z,100006.02
2019-04-26T09:11:06.355Z,100002.91
2019-04-26T09:13:52.880Z,100009.34
2019-04-26T09:16:49.822Z,100012.23
2019-04-26T09:19:30.566Z,100018.03
2019-04-26T09:22:22.755Z,100022.06
2019-04-26T09:25:16.925Z,100023.91
2019-04-26T09:28:17.945Z,100020.34
2019-04-26T09:31:23.690Z,100022.51
2019-04-26T09:35:02.358Z,100022.20
2019-04-26T09:37:50.958Z,100018.66
2019-04-26T09:40:37.623Z,100024.39
2019-04-26T09:43:45.380Z,100041.13
2019-04-26T09:46:54.377Z,100036.57
2019-04-26T09:50:02.378Z,100040.13
2019-04-26T09:52:51.398Z,100037.49
2019-04-26T09:55:37.799Z,100022.53
2019-04-26T09:58:26.778Z,100023.58
2019-04-26T10:01:13.776Z,100035.42
2019-04-26T10:04:00.277Z,100034.03
2019-04-26T10:06:47.076Z,100042.34
2019-04-26T10:09:33.715Z,100043.86
2019-04-26T10:12:29.255Z,100045.22
2019-04-26T10:15:26.859Z,100054.80
2019-04-26T10:18:25.920Z,100051.25
2019-04-26T10:21:11.817Z,100050.06
2019-04-26T10:24:01.455Z,100049.95
2019-04-26T10:26:49.396Z,100037.98
2019-04-26T10:29:35.826Z,100034.19
2019-04-26T10:32:26.288Z,100030.34
2019-04-26T10:35:11.390Z,100028.91
2019-04-26T10:37:57.917Z,100029.88
2019-04-26T10:40:44.164Z,100018.52
2019-04-26T10:43:30.203Z,100024.33
2019-04-26T10:46:16.295Z,100031.84
2019-04-26T10:49:24.679Z,100022.84
2019-04-26T10:52:34.236Z,100026.17
2019-04-26T10:55:50.209Z,100024.93
2019-04-26T10:58:56.617Z,100035.58
2019-04-26T11:01:44.235Z,100031.02
2019-04-26T11:04:30.476Z,100044.80
2019-04-26T11:07:16.681Z,100045.82
2019-04-26T11:10:04.515Z,100055.45
2019-04-26T11:12:50.783Z,100048.75
2019-04-26T11:15:36.955Z,100050.36
2019-04-26T11:18:27.310Z,100057.45
2019-04-26T11:21:11.676Z,100054.51
2019-04-26T11:23:58.256Z,100049.00
2019-04-26T11:26:44.515Z,100056.73
2019-04-26T11:29:30.683Z,100057.63
2019-04-26T11:32:16.755Z,100068.03
2019-04-26T11:35:03.462Z,100066.81
2019-04-26T11:37:50.686Z,100063.00
2019-04-26T11:40:37.978Z,100061.05
2019-04-26T11:43:23.991Z,100062.84
2019-04-26T11:46:11.035Z,100068.20
2019-04-26T11:48:59.319Z,100065.14
2019-04-26T11:51:45.376Z,100063.36
2019-04-26T11:54:31.495Z,100056.16
2019-04-26T11:57:17.523Z,100051.86
2019-04-26T12:00:05.457Z,100049.50
2019-04-26T12:02:52.435Z,100047.14
2019-04-26T12:06:10.159Z,100046.16
2019-04-26T12:08:59.055Z,100048.68
2019-04-26T12:11:50.990Z,100068.64
2019-04-26T12:14:34.363Z,100071.33
2019-04-26T12:17:20.475Z,100075.52
2019-04-26T12:20:06.895Z,100067.42
2019-04-26T12:22:52.896Z,100057.66
2019-04-26T12:25:43.642Z,100060.31
2019-04-26T12:28:27.455Z,100063.92
2019-04-26T12:31:15.188Z,100068.06
2019-04-26T12:34:01.758Z,100057.47
2019-04-26T12:36:47.935Z,100057.72
2019-04-26T12:39:36.819Z,100060.48
2019-04-26T12:42:22.075Z,100052.88
2019-04-26T12:45:33.775Z,100045.94
2019-04-26T12:48:21.355Z,100046.22
2019-04-26T12:51:08.232Z,100072.12
2019-04-26T12:53:55.964Z,100080.41
2019-04-26T12:56:42.537Z,100078.72
2019-04-26T12:59:28.596Z,100090.61
2019-04-26T13:02:16.523Z,100094.84
2019-04-26T13:05:02.995Z,100098.25
2019-04-26T13:07:53.821Z,100082.80
2019-04-26T13:11:07.913Z,100079.79
2019-04-26T13:14:08.035Z,100079.16
2019-04-26T13:17:02.373Z,100075.97
2019-04-26T13:19:49.659Z,100071.67
2019-04-26T13:22:45.844Z,100070.77
2019-04-26T13:25:26.676Z,100083.48
2019-04-26T13:28:15.786Z,100083.27
2019-04-26T13:31:02.368Z,100083.07
2019-04-26T13:33:48.959Z,100083.27
2019-04-26T13:36:35.292Z,100090.60
2019-04-26T13:39:22.503Z,100090.11
2019-04-26T13:42:09.723Z,100096.57
2019-04-26T13:45:07.157Z,100096.66
2019-04-26T13:48:28.115Z,100097.59
2019-04-26T13:51:15.675Z,100082.52
2019-04-26T13:54:02.101Z,100075.42
2019-04-26T13:56:48.175Z,100079.02
2019-04-26T13:59:34.415Z,100084.55
2019-04-26T14:02:20.715Z,100090.86
2019-04-26T14:05:07.315Z,100094.21
2019-04-26T14:07:54.105Z,100101.49
2019-04-26T14:10:40.504Z,100100.75
2019-04-26T14:13:26.996Z,100095.97
2019-04-26T14:16:16.992Z,100095.14
2019-04-26T14:19:01.937Z,100100.06
2019-04-26T14:21:48.357Z,100100.64
2019-04-26T14:24:58.292Z,100103.55
2019-04-26T14:27:51.515Z,100112.33
2019-04-26T14:30:41.879Z,100098.93
2019-04-26T14:33:27.077Z,100107.45
2019-04-26T14:36:17.847Z,100115.63
2019-04-26T14:39:06.168Z,100111.94
2019-04-26T14:41:56.937Z,100116.52
2019-04-26T14:44:49.304Z,100123.84
2019-04-26T14:47:30.498Z,100131.73
2019-04-26T14:50:17.335Z,100128.59
2019-04-26T14:53:03.777Z,100130.84
2019-04-26T14:55:51.226Z,100130.70
2019-04-26T14:58:38.055Z,100133.28
2019-04-26T15:01:52.756Z,100131.23
2019-04-26T15:04:54.156Z,100132.55
2019-04-26T15:07:49.544Z,100130.59
2019-04-26T15:10:43.795Z,100124.60
2019-04-26T15:13:23.589Z,100123.92
2019-04-26T15:16:11.843Z,100118.20
2019-04-26T15:18:57.978Z,100123.13
2019-04-26T15:21:44.247Z,100127.80
2019-04-26T15:24:34.983Z,100131.20
2019-04-26T15:27:23.243Z,100129.20
2019-04-26T15:30:09.772Z,100130.77
2019-04-26T15:32:55.642Z,100127.95
2019-04-26T15:35:50.086Z,100127.98
2019-04-26T15:38:44.811Z,100130.75
2019-04-26T15:41:47.087Z,100131.53
2019-04-26T15:45:14.517Z,100123.50
2019-04-26T15:48:24.567Z,100125.40
2019-04-26T15:51:12.533Z,100128.37
2019-04-26T15:53:58.752Z,100124.64
2019-04-26T15:56:45.002Z,100121.28
2019-04-26T15:59:32.594Z,100129.67
2019-04-26T16:02:24.615Z,100137.71
2019-04-26T16:05:07.657Z,100135.43
2019-04-26T16:07:57.306Z,100131.72
2019-04-26T16:10:43.039Z,100130.77
2019-04-26T16:13:29.112Z,100127.81
2019-04-26T16:16:16.544Z,100125.30
2019-04-26T16:19:02.985Z,100139.75
2019-04-26T16:21:52.767Z,100131.64
2019-04-26T16:24:37.547Z,100131.48
2019-04-26T16:27:24.576Z,100127.31
2019-04-26T16:30:32.535Z,100123.10
2019-04-26T16:33:20.827Z,100118.56
2019-04-26T16:36:06.955Z,100123.73
2019-04-26T16:38:56.024Z,100124.86
2019-04-26T16:41:42.106Z,100124.37
2019-04-26T16:44:31.302Z,100122.55
2019-04-26T16:47:16.367Z,100126.40
2019-04-26T16:50:03.666Z,100128.30
2019-04-26T16:52:50.173Z,100134.36
2019-04-26T16:55:47.972Z,100140.52
2019-04-26T16:58:24.874Z,100146.13
2019-04-26T17:01:12.387Z,100141.53
2019-04-26T17:03:58.961Z,100147.42
2019-04-26T17:06:46.398Z,100143.53
2019-04-26T17:09:54.808Z,100141.69
2019-04-26T17:12:22.629Z,100140.55
2019-04-26T17:15:08.913Z,100137.70
2019-04-26T17:17:54.884Z,100129.17
2019-04-26T17:20:44.946Z,100130.19
2019-04-26T17:23:55.181Z,100132.80
2019-04-26T17:26:47.946Z,100130.52
2019-04-26T17:29:33.867Z,100127.55
2019-04-26T17:32:19.997Z,100117.59
2019-04-26T17:35:07.528Z,100121.40
2019-04-26T17:37:57.462Z,100129.13
2019-04-26T17:40:41.454Z,100131.34
2019-04-26T17:43:27.752Z,100136.19
2019-04-26T17:46:18.254Z,100137.83
2019-04-26T17:49:05.193Z,100139.88
2019-04-26T17:51:57.709Z,100145.42
2019-04-26T17:54:48.797Z,100154.39
2019-04-26T17:57:34.821Z,100159.04
2019-04-26T18:00:21.088Z,100152.24
2019-04-26T18:03:07.604Z,100155.89
2019-04-26T18:05:57.015Z,100163.36
2019-04-26T18:08:51.711Z,100178.83
2019-04-26T18:11:32.851Z,100177.95
2019-04-26T18:14:21.566Z,100171.91
2019-04-26T18:17:38.669Z,100159.37
2019-04-26T18:20:45.801Z,100162.02
2019-04-26T18:23:33.823Z,100156.94
2019-04-26T18:26:21.594Z,100151.30
2019-04-26T18:29:08.752Z,100154.02
2019-04-26T18:31:55.088Z,100154.30
2019-04-26T18:34:42.893Z,100165.77
2019-04-26T18:37:29.122Z,100181.22
2019-04-26T18:40:15.367Z,100197.08
2019-04-26T18:43:03.297Z,100207.36
2019-04-26T18:45:53.152Z,100205.89
2019-04-26T18:48:41.910Z,100207.00
2019-04-26T18:51:30.527Z,100204.15
2019-04-26T18:54:24.667Z,100183.84
2019-04-26T18:57:15.535Z,100171.90
2019-04-26T18:59:58.673Z,100162.75
2019-04-26T19:02:48.466Z,100159.86
2019-04-26T19:05:35.477Z,100174.07
2019-04-26T19:08:26.957Z,100189.67
2019-04-26T19:11:11.612Z,100200.61
2019-04-26T19:14:26.786Z,100203.98
2019-04-26T19:17:33.460Z,100206.61
2019-04-26T19:20:57.990Z,100215.69
2019-04-26T19:23:44.523Z,100230.73
2019-04-26T19:26:34.534Z,100228.19
2019-04-26T19:29:27.424Z,100235.17
2019-04-26T19:32:07.112Z,100226.02
2019-04-26T19:34:53.172Z,100214.46
2019-04-26T19:37:39.409Z,100209.09
2019-04-26T19:40:27.415Z,100206.68
2019-04-26T19:43:14.010Z,100212.41
2019-04-26T19:46:21.704Z,100211.16
2019-04-26T19:49:25.819Z,100223.80
2019-04-26T19:52:33.688Z,100219.86
2019-04-26T19:55:31.961Z,100222.40
2019-04-26T19:58:20.644Z,100231.62
2019-04-26T20:01:09.449Z,100236.12
2019-04-26T20:03:55.617Z,100225.25
2019-04-26T20:06:42.068Z,100221.91
2019-04-26T20:09:31.822Z,100223.10
2019-04-26T20:12:18.194Z,100224.23
2019-04-26T20:15:04.703Z,100234.95
2019-04-26T20:17:59.819Z,100235.35
2019-04-26T20:20:41.470Z,100228.49
2019-04-26T20:23:31.723Z,100236.73
2019-04-26T20:26:16.737Z,100228.00
2019-04-26T20:29:06.204Z,100234.47
2019-04-26T20:32:12.413Z,100234.19
2019-04-26T20:35:05.412Z,100236.98
2019-04-26T20:37:52.127Z,100233.39
2019-04-26T20:40:38.874Z,100229.50
2019-04-26T20:43:26.698Z,100213.36
2019-04-26T20:46:15.471Z,100209.53
2019-04-26T20:49:05.931Z,100207.88
2019-04-26T20:51:49.180Z,100211.11
2019-04-26T20:54:35.392Z,100217.11
2019-04-26T20:57:21.899Z,100210.19
2019-04-26T21:00:08.487Z,100207.12
2019-04-26T21:03:01.633Z,100217.14
2019-04-26T21:05:46.227Z,100212.97
2019-04-26T21:08:31.684Z,100209.34
2019-04-26T21:11:18.354Z,100205.49
2019-04-26T21:14:07.575Z,100208.14
2019-04-26T21:16:53.703Z,100197.84
2019-04-26T21:19:40.082Z,100196.63
2019-04-26T21:22:28.851Z,100195.31
2019-04-26T21:25:32.505Z,100196.91
2019-04-26T21:28:28.097Z,100186.33
2019-04-26T21:31:22.612Z,100183.30
2019-04-26T21:34:30.873Z,100195.38
2019-04-26T21:37:39.533Z,100196.09
2019-04-26T21:40:35.983Z,100191.87
2019-04-26T21:43:23.137Z,100192.90
2019-04-26T21:46:18.507Z,100192.45
2019-04-26T21:48:58.452Z,100186.27
2019-04-26T21:51:51.021Z,100181.66
2019-04-26T21:54:36.967Z,100178.12
2019-04-26T21:57:27.871Z,100185.04
2019-04-26T22:00:29.728Z,100185.97
2019-04-26T22:03:16.221Z,100182.80
2019-04-26T22:06:04.051Z,100175.59
2019-04-26T22:09:04.718Z,100171.64
2019-04-26T22:11:53.911Z,100167.70
2019-04-26T22:14:40.812Z,100176.57
2019-04-26T22:17:34.794Z,100171.74
2019-04-26T22:20:52.218Z,100172.50
2019-04-26T22:23:56.437Z,100177.66
2019-04-26T22:26:47.619Z,100175.20
2019-04-26T22:29:30.775Z,100171.14
2019-04-26T22:32:19.127Z,100175.58
2019-04-26T22:35:05.037Z,100171.14
2019-04-26T22:37:51.343Z,100181.08
2019-04-26T22:40:37.467Z,100173.55
2019-04-26T22:43:41.695Z,100184.69
2019-04-26T22:46:47.427Z,100184.73
2019-04-26T22:49:30.098Z,100183.25
2019-04-26T22:52:16.763Z,100186.22
2019-04-26T22:55:04.481Z,100189.44
2019-04-26T22:57:50.751Z,100186.80
2019-04-26T23:00:39.812Z,100186.59
2019-04-26T23:03:26.197Z,100185.13
2019-04-26T23:06:13.589Z,100188.89
2019-04-26T23:09:00.693Z,100180.50
2019-04-26T23:11:51.537Z,100181.55
2019-04-26T23:14:57.483Z,100188.39
2019-04-26T23:18:03.656Z,100182.86
2019-04-26T23:21:14.509Z,100179.74
2019-04-26T23:23:59.835Z,100171.63
2019-04-26T23:26:47.206Z,100171.14
2019-04-26T23:29:33.726Z,100169.53
2019-04-26T23:32:20.168Z,100164.61
2019-04-26T23:35:06.357Z,100166.20
2019-04-26T23:37:56.654Z,100163.46
2019-04-26T23:40:40.972Z,100166.23
2019-04-26T23:43:26.907Z,100164.97
2019-04-26T23:46:14.667Z,100162.99
2019-04-26T23:49:00.752Z,100161.45
2019-04-26T23:51:46.783Z,100163.52
2019-04-26T23:54:35.872Z,100155.27
2019-04-26T23:57:21.271Z,100153.39
